Time;durP1;ratioP1;P1;durP2;ratioP2;P2;SDS_P1;SDS_P2;PMS_P1;PMS_P2;Temp;Humidity;BMP_temperature;BMP_pressure;BME280_temperature;BME280_humidity;BME280_pressure;Samples;Min_cycle;Max_cycle;Signal;HPM_P1;HPM_P2
2023/03/23 00:02:11;;;;;;;17.60;5.22;;;;;;;10.01;100.00;100110.25;5073014;28;20029;-69
2023/03/23 00:04:37;;;;;;;17.33;5.18;;;;;;;10.07;100.00;100115.50;5072759;28;20055;-69
2023/03/23 00:07:02;;;;;;;15.73;4.90;;;;;;;10.08;100.00;100119.91;5072705;28;20067;-69
2023/03/23 00:09:29;;;;;;;16.92;5.15;;;;;;;10.06;100.00;100112.88;5072891;28;20025;-69
2023/03/23 00:11:56;;;;;;;16.95;5.07;;;;;;;10.10;100.00;100088.19;5072616;28;20039;-69
2023/03/23 00:14:22;;;;;;;16.95;5.10;;;;;;;10.08;100.00;100090.00;5072665;28;20028;-68
2023/03/23 00:16:49;;;;;;;16.10;4.88;;;;;;;10.11;100.00;100100.53;5072497;28;20052;-69
2023/03/23 00:19:16;;;;;;;15.43;5.05;;;;;;;10.14;100.00;100128.69;5072549;28;20099;-69
2023/03/23 00:21:42;;;;;;;15.45;4.90;;;;;;;10.12;100.00;100104.94;5072614;28;20028;-69
2023/03/23 00:24:15;;;;;;;17.52;5.35;;;;;;;10.20;100.00;100092.53;5072734;28;20593;-68
2023/03/23 00:26:42;;;;;;;17.13;5.28;;;;;;;10.18;100.00;100096.06;5064942;28;20433;-70
2023/03/23 00:29:18;;;;;;;14.45;5.18;;;;;;;10.24;100.00;100106.63;5072508;28;20029;-69
2023/03/23 00:31:48;;;;;;;17.70;5.40;;;;;;;10.23;100.00;100112.78;5069504;28;20395;-69
2023/03/23 00:34:19;;;;;;;17.23;5.40;;;;;;;10.22;100.00;100106.63;5072692;28;20021;-68
2023/03/23 00:36:50;;;;;;;17.10;5.30;;;;;;;10.20;100.00;100104.88;5072329;28;20102;-68
2023/03/23 00:39:16;;;;;;;16.73;5.40;;;;;;;10.22;100.00;100111.03;5072385;28;20056;-69
2023/03/23 00:41:43;;;;;;;17.30;5.25;;;;;;;10.26;100.00;100108.34;5072513;28;20078;-68
2023/03/23 00:44:09;;;;;;;16.42;5.40;;;;;;;10.24;100.00;100111.91;5072564;28;20099;-70
2023/03/23 00:46:44;;;;;;;18.35;5.60;;;;;;;10.29;100.00;100105.72;5072178;28;20534;-72
2023/03/23 00:49:12;;;;;;;17.73;5.70;;;;;;;10.18;100.00;100101.34;5068640;28;20032;-70
2023/03/23 00:51:37;;;;;;;17.55;5.80;;;;;;;10.04;100.00;100094.38;5068500;28;20027;-68
2023/03/23 00:54:03;;;;;;;19.70;6.18;;;;;;;9.88;100.00;100090.09;5072207;28;20037;-73
2023/03/23 00:56:28;;;;;;;19.13;6.65;;;;;;;9.75;100.00;100091.91;5072042;28;20486;-70
2023/03/23 00:58:53;;;;;;;19.30;6.35;;;;;;;9.72;100.00;100100.69;5072397;28;20029;-68
2023/03/23 01:01:19;;;;;;;19.23;7.28;;;;;;;9.60;100.00;100091.06;5072236;28;20518;-68
2023/03/23 01:03:45;;;;;;;19.42;7.22;;;;;;;9.56;100.00;100075.25;5074330;28;20032;-68
2023/03/23 01:06:14;;;;;;;20.15;7.85;;;;;;;9.51;100.00;100075.28;5076077;28;20025;-69
2023/03/23 01:08:44;;;;;;;19.58;7.78;;;;;;;9.48;100.00;100058.56;5072305;28;20062;-69
2023/03/23 01:11:14;;;;;;;20.10;7.70;;;;;;;9.54;100.00;100069.13;5072175;28;20418;-68
2023/03/23 01:13:41;;;;;;;19.48;7.45;;;;;;;9.60;100.00;100067.31;5072365;28;20421;-69
2023/03/23 01:16:07;;;;;;;19.27;7.90;;;;;;;9.57;100.00;100042.72;5071231;28;20075;-69
2023/03/23 01:18:33;;;;;;;19.90;7.63;;;;;;;9.54;100.00;100024.28;5074433;28;20485;-69
2023/03/23 01:21:07;;;;;;;19.27;8.02;;;;;;;9.61;100.00;100047.09;5074653;28;20032;-69
2023/03/23 01:23:34;;;;;;;19.40;7.63;;;;;;;9.64;100.00;100041.81;5075451;28;20489;-73
2023/03/23 01:26:10;;;;;;;19.75;7.65;;;;;;;9.61;100.00;100047.09;5074322;28;20520;-73
2023/03/23 01:28:36;;;;;;;18.08;7.10;;;;;;;9.70;100.00;100049.69;5075411;28;20111;-73
2023/03/23 01:31:11;;;;;;;18.85;6.70;;;;;;;9.75;100.00;100039.97;5075616;28;20166;-73
2023/03/23 01:33:37;;;;;;;19.98;7.50;;;;;;;9.72;100.00;100040.00;5071389;28;20032;-74
2023/03/23 01:36:09;;;;;;;19.15;6.95;;;;;;;9.75;100.00;100047.88;5075211;28;20059;-74
2023/03/23 01:38:35;;;;;;;18.73;7.03;;;;;;;9.74;100.00;100037.34;5075759;28;20025;-74
2023/03/23 01:41:01;;;;;;;19.00;7.00;;;;;;;9.81;100.00;100044.34;5075513;28;20032;-74
2023/03/23 01:43:26;;;;;;;18.35;6.70;;;;;;;9.79;100.00;100034.72;5075178;28;20082;-74
2023/03/23 01:45:52;;;;;;;20.00;7.07;;;;;;;9.85;100.00;100046.09;5075317;28;20059;-73
2023/03/23 01:48:23;;;;;;;18.73;6.72;;;;;;;9.86;100.00;100044.31;5075123;28;20472;-74
2023/03/23 01:50:51;;;;;;;18.75;6.70;;;;;;;9.89;100.00;100050.47;5075325;28;20024;-74
2023/03/23 01:53:17;;;;;;;19.65;6.82;;;;;;;9.96;100.00;100043.41;5075071;28;20601;-74
2023/03/23 01:55:48;;;;;;;18.33;6.70;;;;;;;9.99;100.00;100046.03;5075087;28;20059;-74
2023/03/23 01:58:14;;;;;;;18.73;6.28;;;;;;;10.19;100.00;100034.44;5075016;28;20027;-75
2023/03/23 02:00:42;;;;;;;18.30;6.55;;;;;;;10.16;100.00;100024.78;5074900;28;20543;-74
2023/03/23 02:03:09;;;;;;;19.02;6.80;;;;;;;10.18;100.00;100024.75;5070985;28;20029;-74
2023/03/23 02:05:38;;;;;;;17.40;6.07;;;;;;;10.27;100.00;100014.16;5074889;28;20029;-71
2023/03/23 02:08:06;;;;;;;17.83;6.55;;;;;;;10.31;100.00;100005.31;5074675;28;20063;-69
2023/03/23 02:10:33;;;;;;;17.67;6.05;;;;;;;10.49;100.00;100011.38;5074909;28;20030;-67
2023/03/23 02:13:01;;;;;;;18.08;5.72;;;;;;;10.63;100.00;99998.91;5073261;28;20036;-69
2023/03/23 02:15:43;;;;;;;16.08;5.53;;;;;;;10.81;100.00;100004.00;5074436;28;20038;-71
2023/03/23 02:18:30;;;;;;;17.63;5.60;;;;;;;10.85;100.00;99999.56;5070705;28;20475;-68
2023/03/23 02:21:17;;;;;;;17.42;5.47;;;;;;;10.91;100.00;99990.72;5073041;28;20029;-69
2023/03/23 02:23:55;;;;;;;17.77;5.45;;;;;;;10.89;100.00;99992.47;5071113;28;20032;-71
2023/03/23 02:26:23;;;;;;;17.70;5.32;;;;;;;10.92;100.00;99995.09;5074406;28;20529;-68
2023/03/23 02:29:01;;;;;;;17.23;5.60;;;;;;;10.94;100.00;100006.53;5074574;28;20028;-70
2023/03/23 02:31:59;;;;;;;16.20;5.20;;;;;;;11.02;100.00;99999.38;5074799;28;20438;-68
2023/03/23 02:34:50;;;;;;;16.63;5.13;;;;;;;11.01;100.00;100005.56;5072922;28;20406;-68
2023/03/23 02:37:30;;;;;;;17.70;5.40;;;;;;;11.01;100.00;99984.41;5062977;28;20067;-69
2023/03/23 02:40:11;;;;;;;15.68;5.18;;;;;;;10.98;100.00;99984.47;5074386;28;20029;-68
2023/03/23 02:42:41;;;;;;;17.50;5.30;;;;;;;11.02;100.00;99983.50;5074254;28;20483;-69
2023/03/23 02:45:10;;;;;;;14.85;5.03;;;;;;;11.00;100.00;99980.03;5073996;28;20621;-69
2023/03/23 02:47:37;;;;;;;15.13;5.10;;;;;;;11.07;100.00;99983.47;5073959;28;20032;-68
2023/03/23 02:50:06;;;;;;;15.77;5.20;;;;;;;11.10;100.00;99986.94;5074086;28;20043;-68
2023/03/23 02:52:33;;;;;;;18.70;5.25;;;;;;;11.18;100.00;99992.16;5074162;28;20043;-68
2023/03/23 02:55:00;;;;;;;15.43;5.15;;;;;;;11.21;100.00;99986.81;5073756;28;20024;-69
2023/03/23 02:57:27;;;;;;;15.88;5.22;;;;;;;11.23;100.00;99992.97;5073723;28;20070;-70
2023/03/23 02:59:52;;;;;;;16.77;5.13;;;;;;;11.21;100.00;99986.81;5073917;28;20032;-68
2023/03/23 03:02:29;;;;;;;16.02;5.07;;;;;;;11.29;100.00;99997.31;5073791;28;20032;-68
2023/03/23 03:04:58;;;;;;;17.08;5.18;;;;;;;11.34;100.00;99982.25;5072330;28;20484;-68
2023/03/23 03:07:36;;;;;;;15.90;5.15;;;;;;;11.37;100.00;99982.22;5073714;28;20107;-68
2023/03/23 03:10:19;;;;;;;15.23;4.95;;;;;;;11.35;100.00;99991.94;5073710;28;20364;-68
2023/03/23 03:13:15;;;;;;;16.23;5.00;;;;;;;11.31;100.00;99999.06;5070577;28;20020;-67
2023/03/23 03:15:49;;;;;;;16.02;5.10;;;;;;;11.28;100.00;100007.00;5069664;28;20063;-69
2023/03/23 03:18:30;;;;;;;16.08;5.10;;;;;;;11.37;100.00;99987.50;5070514;28;20028;-69
2023/03/23 03:21:00;;;;;;;16.52;4.97;;;;;;;11.31;100.00;100003.47;5073548;28;20363;-68
2023/03/23 03:23:28;;;;;;;14.73;4.68;;;;;;;11.33;100.00;99988.47;5073272;28;20027;-68
2023/03/23 03:25:57;;;;;;;15.85;5.00;;;;;;;11.40;100.00;100018.34;5072749;28;20044;-68
2023/03/23 03:28:26;;;;;;;14.25;4.90;;;;;;;11.32;100.00;99994.63;5073431;28;20036;-69
2023/03/23 03:30:55;;;;;;;14.63;4.80;;;;;;;11.38;100.00;99994.56;5073170;28;20028;-68
2023/03/23 03:33:25;;;;;;;13.98;4.60;;;;;;;11.45;100.00;99992.72;5073070;28;20379;-69
2023/03/23 03:35:53;;;;;;;15.00;4.78;;;;;;;11.41;100.00;99994.50;5073272;28;20033;-68
2023/03/23 03:38:19;;;;;;;16.48;4.75;;;;;;;11.39;100.00;99987.47;5073108;28;20036;-68
2023/03/23 03:40:44;;;;;;;17.08;4.65;;;;;;;11.44;100.00;100004.19;5073034;28;20037;-69
2023/03/23 03:43:09;;;;;;;17.23;4.95;;;;;;;11.39;100.00;99985.72;5073174;28;20525;-68
2023/03/23 03:45:35;;;;;;;15.45;4.47;;;;;;;11.40;100.00;99998.09;5072843;28;20033;-69
2023/03/23 03:48:01;;;;;;;16.15;4.68;;;;;;;11.44;100.00;100004.19;5072949;28;20403;-69
2023/03/23 03:50:27;;;;;;;13.77;4.45;;;;;;;11.37;100.00;99987.50;5073160;28;20085;-69
2023/03/23 03:52:53;;;;;;;16.20;4.88;;;;;;;11.35;100.00;99999.88;5072856;28;20057;-69
2023/03/23 03:55:18;;;;;;;16.73;4.57;;;;;;;11.37;100.00;99992.78;5072827;28;20037;-69
2023/03/23 03:57:44;;;;;;;16.83;4.40;;;;;;;11.33;100.00;99996.41;5072967;28;20366;-69
2023/03/23 04:00:16;;;;;;;15.98;4.28;;;;;;;11.35;100.00;100005.19;5072763;28;20024;-68
2023/03/23 04:02:50;;;;;;;16.52;4.28;;;;;;;11.38;100.00;100012.22;5069213;28;20107;-69
2023/03/23 04:05:16;;;;;;;16.50;4.30;;;;;;;11.34;100.00;100035.19;5065461;28;20055;-70
2023/03/23 04:07:41;;;;;;;13.57;4.03;;;;;;;11.33;100.00;100002.56;5072894;28;20064;-68
2023/03/23 04:10:09;;;;;;;13.48;3.85;;;;;;;11.34;100.00;100006.97;5072593;28;20067;-69
2023/03/23 04:12:36;;;;;;;14.50;4.00;;;;;;;11.34;100.00;100006.06;5072893;28;20025;-68
2023/03/23 04:15:02;;;;;;;14.93;3.70;;;;;;;11.31;100.00;100009.66;5072862;28;20028;-69
2023/03/23 04:17:28;;;;;;;16.17;3.80;;;;;;;11.30;100.00;100017.56;5072415;28;20117;-68
2023/03/23 04:19:57;;;;;;;15.10;3.65;;;;;;;11.29;100.00;100006.13;5072719;28;20467;-68
2023/03/23 04:22:29;;;;;;;13.73;3.55;;;;;;;11.27;100.00;100010.56;5073000;28;20024;-69
2023/03/23 04:25:05;;;;;;;15.02;3.72;;;;;;;11.32;100.00;100015.81;5072540;28;20020;-69
2023/03/23 04:27:30;;;;;;;14.85;3.47;;;;;;;11.32;100.00;100015.81;5072535;28;20032;-68
2023/03/23 04:29:58;;;;;;;17.17;4.00;;;;;;;11.40;100.00;100018.34;5072655;28;20490;-68
2023/03/23 04:32:28;;;;;;;12.70;3.20;;;;;;;11.39;100.00;100006.91;5072277;28;20491;-68
2023/03/23 04:35:00;;;;;;;17.48;3.38;;;;;;;11.39;100.00;100022.78;5072479;28;20117;-69
2023/03/23 04:37:28;;;;;;;14.05;3.17;;;;;;;11.28;100.00;100027.31;5073439;28;20032;-68
2023/03/23 04:40:00;;;;;;;16.77;3.20;;;;;;;11.28;100.00;100029.97;5076641;28;20508;-68
2023/03/23 04:42:30;;;;;;;17.63;3.40;;;;;;;11.32;100.00;100039.63;5076352;28;20387;-68
2023/03/23 04:44:57;;;;;;;13.65;3.08;;;;;;;11.30;100.00;100029.06;5076271;28;20025;-68
2023/03/23 04:47:23;;;;;;;17.42;3.20;;;;;;;11.31;100.00;100033.47;5076492;28;20064;-67
2023/03/23 04:49:49;;;;;;;14.25;2.80;;;;;;;11.26;100.00;100024.69;5075077;28;20103;-67
2023/03/23 04:52:14;;;;;;;13.70;2.92;;;;;;;11.20;100.00;100039.75;5076285;28;20471;-67
2023/03/23 04:54:40;;;;;;;15.48;3.00;;;;;;;11.17;100.00;100043.31;5076350;28;20073;-67
2023/03/23 04:57:05;;;;;;;12.05;2.90;;;;;;;11.15;100.00;100019.53;5076011;28;20365;-69
2023/03/23 04:59:30;;;;;;;13.43;2.90;;;;;;;11.23;100.00;100064.41;5076027;28;20029;-67
2023/03/23 05:01:57;;;;;;;16.77;2.90;;;;;;;11.24;100.00;100038.81;5076389;28;20039;-67
2023/03/23 05:04:24;;;;;;;14.88;3.30;;;;;;;11.13;100.00;100036.31;5075968;28;20020;-68
2023/03/23 05:06:51;;;;;;;16.52;3.20;;;;;;;11.08;100.00;100033.72;5075935;28;20032;-68
2023/03/23 05:09:17;;;;;;;17.02;3.22;;;;;;;11.01;100.00;100042.59;5076077;28;20032;-67
2023/03/23 05:11:42;;;;;;;16.88;3.55;;;;;;;10.98;100.00;100022.34;5075911;28;20051;-69
2023/03/23 05:14:07;;;;;;;15.95;3.55;;;;;;;11.07;100.00;100042.53;5075989;28;20089;-67
2023/03/23 05:16:36;;;;;;;13.20;2.92;;;;;;;11.06;100.00;100039.91;5075748;28;20376;-68
2023/03/23 05:19:02;;;;;;;16.67;3.10;;;;;;;11.04;100.00;100037.28;5074496;28;20537;-67
2023/03/23 05:21:28;;;;;;;15.35;3.08;;;;;;;11.03;100.00;100038.16;5075657;28;20080;-67
2023/03/23 05:23:54;;;;;;;14.50;2.95;;;;;;;11.09;100.00;100032.81;5075893;28;20134;-68
2023/03/23 05:26:28;;;;;;;13.73;2.92;;;;;;;11.15;100.00;100043.34;5075522;28;20542;-67
2023/03/23 05:28:55;;;;;;;15.52;3.00;;;;;;;11.09;100.00;100032.81;5075734;28;20036;-68
2023/03/23 05:31:21;;;;;;;13.05;2.70;;;;;;;11.16;100.00;100041.56;5075689;28;20498;-67
2023/03/23 05:33:47;;;;;;;13.63;2.80;;;;;;;11.15;100.00;100067.16;5075419;28;20041;-69
2023/03/23 05:36:13;;;;;;;12.68;2.97;;;;;;;11.23;100.00;100052.97;5075606;28;20028;-68
2023/03/23 05:38:47;;;;;;;15.10;3.13;;;;;;;11.13;100.00;100047.75;5075473;28;20032;-67
2023/03/23 05:41:14;;;;;;;15.13;3.10;;;;;;;11.03;100.00;100043.44;5071907;28;20108;-74
2023/03/23 05:43:39;;;;;;;14.05;3.00;;;;;;;11.04;100.00;100047.84;5075463;28;20060;-74
2023/03/23 05:46:06;;;;;;;13.55;3.17;;;;;;;10.92;100.00;100035.63;5075324;28;20435;-71
2023/03/23 05:48:32;;;;;;;13.73;3.10;;;;;;;10.93;100.00;100045.31;5074828;28;20391;-71
2023/03/23 05:50:58;;;;;;;17.15;3.20;;;;;;;10.91;100.00;100047.09;5075119;28;20028;-71
2023/03/23 05:53:23;;;;;;;15.45;3.10;;;;;;;10.86;100.00;100051.53;5075319;28;20497;-71
2023/03/23 05:55:49;;;;;;;14.57;3.15;;;;;;;10.91;100.00;100054.16;5074862;28;20066;-71
2023/03/23 05:58:14;;;;;;;15.15;3.30;;;;;;;10.93;100.00;100033.84;5075042;28;20406;-71
2023/03/23 06:00:40;;;;;;;13.60;2.90;;;;;;;10.89;100.00;100046.25;5075140;28;20029;-71
2023/03/23 06:03:05;;;;;;;14.90;3.35;;;;;;;10.87;100.00;100041.88;5074831;28;20025;-71
2023/03/23 06:05:32;;;;;;;16.58;3.22;;;;;;;10.82;100.00;100048.06;5073606;28;20071;-71
2023/03/23 06:07:58;;;;;;;14.10;2.95;;;;;;;10.86;100.00;100042.75;5074978;28;20055;-71
2023/03/23 06:10:23;;;;;;;15.70;3.22;;;;;;;10.94;100.00;100048.84;5075039;28;20036;-71
2023/03/23 06:12:50;;;;;;;16.75;3.22;;;;;;;10.96;100.00;100041.75;5074698;28;20107;-71
2023/03/23 06:15:15;;;;;;;14.82;3.40;;;;;;;10.93;100.00;100057.66;5075031;28;20374;-71
2023/03/23 06:17:41;;;;;;;16.80;3.30;;;;;;;10.93;100.00;100071.75;5074577;28;20055;-71
2023/03/23 06:20:09;;;;;;;17.02;3.50;;;;;;;11.02;100.00;100078.72;5074455;28;20457;-71
2023/03/23 06:22:35;;;;;;;14.68;3.20;;;;;;;11.01;100.00;100074.34;5074706;28;20075;-66
2023/03/23 06:25:00;;;;;;;18.42;3.10;;;;;;;11.04;100.00;100089.28;5074680;28;20411;-65
2023/03/23 06:27:26;;;;;;;15.40;3.13;;;;;;;11.01;100.00;100084.91;5074298;28;20036;-66
2023/03/23 06:29:52;;;;;;;14.50;3.20;;;;;;;11.08;100.00;100088.38;5073217;28;20029;-65
2023/03/23 06:32:17;;;;;;;15.98;3.33;;;;;;;11.14;100.00;100099.78;5074298;28;20028;-66
2023/03/23 06:34:44;;;;;;;17.20;3.22;;;;;;;11.13;100.00;100105.94;5074372;28;20467;-65
2023/03/23 06:37:11;;;;;;;16.15;3.10;;;;;;;11.09;100.00;100096.28;5074239;28;20476;-66
2023/03/23 06:39:38;;;;;;;16.60;3.13;;;;;;;10.99;100.00;100100.81;5074141;28;20029;-65
2023/03/23 06:42:03;;;;;;;19.42;3.60;;;;;;;10.92;100.00;100120.25;5074311;28;20033;-68
2023/03/23 06:44:29;;;;;;;17.65;3.13;;;;;;;10.75;100.00;100114.22;5071930;28;22052;-68
2023/03/23 06:46:54;;;;;;;16.75;3.17;;;;;;;10.64;100.00;100111.66;5069089;28;20047;-68
2023/03/23 06:49:20;;;;;;;17.80;3.30;;;;;;;10.40;100.00;100116.22;5073493;28;20020;-67
2023/03/23 06:51:45;;;;;;;17.35;3.20;;;;;;;10.29;100.00;100115.38;5072056;28;20031;-69
2023/03/23 06:54:11;;;;;;;17.15;3.20;;;;;;;10.39;100.00;100121.53;5073613;28;20028;-67
2023/03/23 06:56:36;;;;;;;16.15;3.30;;;;;;;10.24;100.00;100128.63;5071874;28;20033;-69
2023/03/23 06:59:03;;;;;;;18.55;3.50;;;;;;;10.15;100.00;100130.44;5067123;28;20378;-67
2023/03/23 07:01:28;;;;;;;15.18;3.30;;;;;;;10.22;100.00;100132.16;5071078;28;20494;-70
2023/03/23 07:03:55;;;;;;;17.42;3.42;;;;;;;10.29;100.00;100126.84;5073950;28;20020;-71
2023/03/23 07:06:21;;;;;;;13.00;3.20;;;;;;;10.07;100.00;100120.78;5070090;28;20029;-70
2023/03/23 07:08:47;;;;;;;18.17;3.50;;;;;;;9.85;100.00;100125.28;5072309;28;20028;-72
2023/03/23 07:11:12;;;;;;;19.00;3.70;;;;;;;9.75;100.00;100140.28;5071525;28;20108;-70
2023/03/23 07:13:38;;;;;;;19.05;3.80;;;;;;;9.55;100.00;100150.00;5072935;28;20479;-70
2023/03/23 07:16:07;;;;;;;18.90;3.60;;;;;;;9.41;100.00;100169.41;5070817;28;20273;-69
2023/03/23 07:18:32;;;;;;;16.95;3.50;;;;;;;9.21;100.00;100172.06;5066843;28;20171;-69
2023/03/23 07:20:58;;;;;;;24.98;4.80;;;;;;;9.04;100.00;100163.28;5070670;28;20541;-71
2023/03/23 07:23:23;;;;;;;20.08;4.88;;;;;;;8.80;100.00;100179.97;5069040;28;20510;-71
2023/03/23 07:25:49;;;;;;;19.48;4.75;;;;;;;8.80;100.00;100172.94;5052507;28;20040;-71
2023/03/23 07:28:15;;;;;;;20.40;4.90;;;;;;;8.79;100.00;100179.06;5067785;28;20032;-71
2023/03/23 07:30:40;;;;;;;23.92;5.55;;;;;;;8.79;100.00;100199.28;5068447;28;20027;-69
2023/03/23 07:33:07;;;;;;;22.65;6.05;;;;;;;8.79;100.00;100204.56;5068305;28;20028;-68
2023/03/23 07:35:33;;;;;;;17.05;3.80;;;;;;;8.52;100.00;100214.19;5065467;28;20056;-69
2023/03/23 07:37:59;;;;;;;11.85;3.00;;;;;;;7.93;100.00;100210.38;5071738;28;20055;-71
2023/03/23 07:40:25;;;;;;;17.73;3.20;;;;;;;7.61;100.00;100206.69;5070303;28;20020;-70
2023/03/23 07:42:55;;;;;;;12.10;2.90;;;;;;;7.49;100.00;100188.22;5071975;28;20154;-69
2023/03/23 07:45:21;;;;;;;16.45;3.10;;;;;;;7.45;100.00;100189.06;5077597;28;20062;-70
2023/03/23 07:47:47;;;;;;;16.48;3.40;;;;;;;7.47;100.00;100182.03;5068291;28;20037;-70
2023/03/23 07:50:13;;;;;;;16.88;3.80;;;;;;;7.55;100.00;100180.34;5069641;28;20032;-68
2023/03/23 07:52:41;;;;;;;16.08;3.75;;;;;;;7.66;100.00;100189.19;5067350;28;20032;-70
2023/03/23 07:55:08;;;;;;;17.10;3.92;;;;;;;7.76;100.00;100192.78;5069569;28;20036;-71
2023/03/23 07:57:34;;;;;;;16.23;3.78;;;;;;;7.84;100.00;100192.81;5066937;28;20025;-74
2023/03/23 08:00:00;;;;;;;17.67;4.03;;;;;;;7.92;100.00;100212.16;5077356;28;20375;-74
2023/03/23 08:02:26;;;;;;;17.08;4.10;;;;;;;7.95;100.00;100206.91;5067703;28;20475;-74
2023/03/23 08:04:53;;;;;;;16.13;3.80;;;;;;;7.97;100.00;100231.47;5070808;28;20021;-74
2023/03/23 08:07:19;;;;;;;17.73;3.63;;;;;;;7.93;100.00;100223.56;5067308;28;20056;-73
2023/03/23 08:09:46;;;;;;;16.90;3.60;;;;;;;7.89;100.00;100227.03;5070582;28;20488;-74
2023/03/23 08:12:12;;;;;;;16.83;3.83;;;;;;;7.88;100.00;100233.16;5066677;28;20031;-74
2023/03/23 08:14:38;;;;;;;17.38;3.70;;;;;;;7.86;100.00;100238.41;5073296;28;20139;-73
2023/03/23 08:17:03;;;;;;;15.80;3.30;;;;;;;7.85;100.00;100247.19;5070296;28;20080;-73
2023/03/23 08:19:29;;;;;;;15.40;3.25;;;;;;;7.84;100.00;100241.03;5064742;28;20515;-74
2023/03/23 08:21:54;;;;;;;13.10;3.00;;;;;;;7.92;100.00;100237.56;5071469;28;20028;-71
2023/03/23 08:24:20;;;;;;;13.65;3.00;;;;;;;7.89;100.00;100233.16;5069513;28;20036;-70
2023/03/23 08:26:45;;;;;;;14.00;3.25;;;;;;;7.91;100.00;100234.06;5072362;28;20035;-70
2023/03/23 08:29:11;;;;;;;15.13;3.00;;;;;;;7.91;100.00;100241.09;5065753;28;20024;-68
2023/03/23 08:31:39;;;;;;;11.07;2.50;;;;;;;7.86;100.00;100248.94;5065787;28;20036;-70
2023/03/23 08:34:04;;;;;;;14.15;2.80;;;;;;;7.85;100.00;100237.53;5072328;28;20027;-68
2023/03/23 08:36:35;;;;;;;13.55;2.90;;;;;;;7.93;100.00;100236.72;5070931;28;20039;-70
2023/03/23 08:39:00;;;;;;;12.20;2.65;;;;;;;7.91;100.00;100225.31;5071062;28;20082;-68
2023/03/23 08:41:26;;;;;;;11.75;2.53;;;;;;;7.94;100.00;100226.19;5066563;28;20025;-71
2023/03/23 08:43:52;;;;;;;13.27;2.80;;;;;;;7.95;100.00;100227.97;5073187;28;20077;-68
2023/03/23 08:46:19;;;;;;;12.57;2.50;;;;;;;7.96;100.00;100234.97;5073920;28;20478;-70
2023/03/23 08:48:45;;;;;;;12.25;3.13;;;;;;;8.02;100.00;100240.28;5070863;28;20136;-67
2023/03/23 08:51:10;;;;;;;13.55;2.80;;;;;;;8.00;100.00;100230.59;5072142;28;20022;-67
2023/03/23 08:53:36;;;;;;;14.90;2.80;;;;;;;8.07;100.00;100242.94;5068952;28;20107;-68
2023/03/23 08:56:07;;;;;;;16.02;3.05;;;;;;;8.11;100.00;100241.19;5067330;28;20032;-67
2023/03/23 08:58:34;;;;;;;17.88;4.35;;;;;;;8.14;100.00;100238.56;5064226;28;20052;-68
2023/03/23 09:01:00;;;;;;;17.25;3.80;;;;;;;8.20;100.00;100250.00;5070920;28;20105;-67
2023/03/23 09:03:25;;;;;;;13.40;3.20;;;;;;;8.09;100.00;100261.38;5072218;28;20507;-68
2023/03/23 09:05:51;;;;;;;14.63;3.00;;;;;;;8.08;100.00;100255.22;5072401;28;20030;-68
2023/03/23 09:08:17;;;;;;;18.98;3.60;;;;;;;8.13;100.00;100248.22;5072163;28;20115;-67
2023/03/23 09:10:42;;;;;;;15.43;2.90;;;;;;;8.23;100.00;100242.97;5072169;28;20375;-68
2023/03/23 09:13:08;;;;;;;15.50;3.35;;;;;;;8.50;100.00;100235.25;5072455;28;20111;-67
2023/03/23 09:15:33;;;;;;;15.05;3.03;;;;;;;8.54;100.00;100234.34;5071996;28;20052;-68
2023/03/23 09:18:00;;;;;;;14.35;2.92;;;;;;;8.60;100.00;100249.31;5071856;28;20056;-67
2023/03/23 09:20:27;;;;;;;15.43;3.30;;;;;;;8.55;100.00;100251.94;5072256;28;20487;-67
2023/03/23 09:22:54;;;;;;;16.92;3.42;;;;;;;8.53;100.00;100258.97;5072515;28;20383;-68
2023/03/23 09:25:22;;;;;;;12.40;2.85;;;;;;;8.52;100.00;100249.28;5070114;28;20344;-71
2023/03/23 09:27:56;;;;;;;15.85;3.25;;;;;;;8.50;100.00;100243.16;5070271;28;20024;-73
2023/03/23 09:30:24;;;;;;;15.73;3.35;;;;;;;8.51;100.00;100242.25;5065143;28;20120;-72
2023/03/23 09:32:49;;;;;;;13.25;2.97;;;;;;;8.58;100.00;100255.44;5066493;28;20025;-73
2023/03/23 09:35:16;;;;;;;13.10;3.08;;;;;;;8.74;100.00;100238.81;5074317;28;20025;-72
2023/03/23 09:37:43;;;;;;;12.80;3.20;;;;;;;8.87;100.00;100247.63;5068530;28;20181;-72
2023/03/23 09:40:19;;;;;;;13.95;3.20;;;;;;;9.10;100.00;100263.50;5069151;28;20108;-73
2023/03/23 09:43:03;;;;;;;15.88;3.05;;;;;;;9.29;100.00;100261.75;5068346;28;20021;-73
2023/03/23 09:45:41;;;;;;;15.48;3.15;;;;;;;9.22;100.00;100262.63;5075130;28;20073;-73
2023/03/23 09:48:29;;;;;;;12.73;2.90;;;;;;;9.47;100.00;100257.34;5073278;28;20074;-73
2023/03/23 09:51:32;;;;;;;10.93;2.70;;;;;;;9.70;100.00;100257.31;5071088;28;20017;-73
2023/03/23 09:54:01;;;;;;;;;;;;;;;10.28;100.00;100251.88;5067742;28;20028;-73
2023/03/23 09:56:30;;;;;;;11.98;2.72;;;;;;;10.69;100.00;100249.97;5070739;28;19920;-73
2023/03/23 09:59:26;;;;;;;11.15;2.85;;;;;;;11.09;100.00;100256.75;5072112;28;20021;-72
2023/03/23 10:01:57;;;;;;;10.18;2.60;;;;;;;11.28;100.00;100242.50;5075072;28;20043;-72
2023/03/23 10:04:54;;;;;;;14.77;2.80;;;;;;;11.57;100.00;100251.09;5072513;28;20028;-73
2023/03/23 10:07:23;;;;;;;12.63;2.70;;;;;;;11.86;100.00;100241.06;5074269;28;20475;-74
2023/03/23 10:09:56;;;;;;;12.32;2.80;;;;;;;12.13;100.00;100254.97;5067950;28;20471;-73
2023/03/23 10:12:58;;;;;;;11.82;2.55;;;;;;;12.39;100.00;100264.34;5073239;28;20078;-72
2023/03/23 10:15:36;;;;;;;13.63;2.90;;;;;;;12.62;100.00;100268.50;5069011;28;20461;-73
2023/03/23 10:18:21;;;;;;;13.48;2.75;;;;;;;12.79;100.00;100255.03;5076561;28;20059;-72
2023/03/23 10:20:59;;;;;;;13.07;2.70;;;;;;;13.23;100.00;100267.59;5072950;28;20407;-73
2023/03/23 10:23:49;;;;;;;13.52;2.53;;;;;;;13.39;100.00;100262.97;5074481;28;20372;-73
2023/03/23 10:26:39;;;;;;;8.98;2.58;;;;;;;12.84;100.00;100275.28;5064938;28;20615;-70
2023/03/23 10:29:22;;;;;;;12.57;2.90;;;;;;;12.87;100.00;100280.53;5068872;28;20085;-70
2023/03/23 10:31:59;;;;;;;9.45;2.60;;;;;;;13.40;100.00;100275.34;5067078;28;20472;-73
2023/03/23 10:34:32;;;;;;;9.68;2.60;;;;;;;13.89;100.00;100278.94;5072109;28;20033;-73
2023/03/23 10:37:27;;;;;;;13.73;2.92;;;;;;;13.86;100.00;100279.00;5073380;28;20025;-74
2023/03/23 10:40:03;;;;;;;12.48;2.88;;;;;;;13.73;100.00;100281.00;5068634;28;20041;-75
2023/03/23 10:42:31;;;;;;;13.80;2.90;;;;;;;14.00;100.00;100272.53;5069777;28;20028;-73
2023/03/23 10:44:59;;;;;;;11.73;2.90;;;;;;;13.94;100.00;100285.03;5074172;28;20398;-73
2023/03/23 10:47:25;;;;;;;10.77;2.80;;;;;;;14.33;100.00;100276.31;5074144;28;20082;-74
2023/03/23 10:49:55;;;;;;;10.55;2.70;;;;;;;14.95;100.00;100273.25;5073820;28;20025;-74
2023/03/23 10:52:32;;;;;;;11.25;2.67;;;;;;;15.53;100.00;100278.09;5073808;28;20111;-73
2023/03/23 10:55:03;;;;;;;12.65;3.00;;;;;;;15.55;100.00;100267.41;5074248;28;20379;-74
2023/03/23 10:57:33;;;;;;;9.07;2.60;;;;;;;15.48;100.00;100272.03;5074047;28;20119;-72
2023/03/23 11:00:29;;;;;;;14.85;2.80;;;;;;;15.97;100.00;100286.75;5073948;28;20413;-75
2023/03/23 11:03:24;;;;;;;14.77;2.80;;;;;;;15.57;100.00;100279.78;5071958;28;20062;-75
2023/03/23 11:05:52;;;;;;;13.65;2.80;;;;;;;15.34;100.00;100253.72;5065524;28;20047;-71
2023/03/23 11:08:21;;;;;;;14.85;2.90;;;;;;;15.36;100.00;100266.97;5063095;28;20029;-73
2023/03/23 11:10:56;;;;;;;12.93;2.70;;;;;;;15.68;100.00;100280.38;5060445;28;20071;-69
2023/03/23 11:13:30;;;;;;;12.25;2.45;;;;;;;15.82;100.00;100260.53;5062275;28;20025;-70
2023/03/23 11:15:56;;;;;;;11.45;2.50;;;;;;;15.74;100.00;100266.03;5062010;28;20032;-69
2023/03/23 11:18:35;;;;;;;13.57;2.53;;;;;;;15.98;100.00;100272.50;5062604;28;20017;-70
2023/03/23 11:21:03;;;;;;;11.20;2.50;;;;;;;15.71;100.00;100265.22;5061842;28;20371;-68
2023/03/23 11:23:39;;;;;;;14.30;2.70;;;;;;;15.35;100.00;100276.78;5061205;28;20475;-69
2023/03/23 11:26:17;;;;;;;13.07;2.60;;;;;;;14.85;100.00;100277.03;5061601;28;20108;-70